sensor_id;sensor_type;location;lat;lon;timestamp;pressure;altitude;pressure_sealevel;temperature;humidity
60099;BME280;62818;49.394;8.686;2022-12-17T00:00:22;100900.66;;;-4.39;95.97
60099;BME280;62818;49.394;8.686;2022-12-17T00:01:42;100904.22;;;-4.42;95.21
60099;BME280;62818;49.394;8.686;2022-12-17T00:03:01;100907.19;;;-4.49;95.11
60099;BME280;62818;49.394;8.686;2022-12-17T00:04:20;100907.22;;;-4.70;95.00
60099;BME280;62818;49.394;8.686;2022-12-17T00:05:39;100903.91;;;-4.34;95.49
60099;BME280;62818;49.394;8.686;2022-12-17T00:06:58;100909.63;;;-4.85;94.91
60099;BME280;62818;49.394;8.686;2022-12-17T00:08:17;100905.47;;;-4.89;95.63
60099;BME280;62818;49.394;8.686;2022-12-17T00:09:39;100908.75;;;-4.66;96.35
60099;BME280;62818;49.394;8.686;2022-12-17T00:10:58;100894.31;;;-4.71;94.91
60099;BME280;62818;49.394;8.686;2022-12-17T00:12:17;100909.66;;;-4.87;94.82
60099;BME280;62818;49.394;8.686;2022-12-17T00:13:38;100905.25;;;-4.65;94.39
60099;BME280;62818;49.394;8.686;2022-12-17T00:14:57;100909.16;;;-4.75;93.88
60099;BME280;62818;49.394;8.686;2022-12-17T00:16:16;100902.28;;;-4.76;94.01
60099;BME280;62818;49.394;8.686;2022-12-17T00:17:38;100911.72;;;-4.95;94.44
60099;BME280;62818;49.394;8.686;2022-12-17T00:19:01;100905.00;;;-4.59;94.76
60099;BME280;62818;49.394;8.686;2022-12-17T00:20:26;100909.59;;;-4.46;94.20
60099;BME280;62818;49.394;8.686;2022-12-17T00:21:45;100912.31;;;-4.88;93.72
60099;BME280;62818;49.394;8.686;2022-12-17T00:23:09;100909.53;;;-4.84;94.25
60099;BME280;62818;49.394;8.686;2022-12-17T00:24:31;100908.13;;;-4.91;94.95
60099;BME280;62818;49.394;8.686;2022-12-17T00:25:55;100906.66;;;-4.58;94.95
60099;BME280;62818;49.394;8.686;2022-12-17T00:27:17;100912.16;;;-4.26;93.64
60099;BME280;62818;49.394;8.686;2022-12-17T00:28:36;100910.38;;;-4.44;93.26
60099;BME280;62818;49.394;8.686;2022-12-17T00:29:56;100911.34;;;-4.86;93.61
60099;BME280;62818;49.394;8.686;2022-12-17T00:31:15;100912.16;;;-4.45;94.78
60099;BME280;62818;49.394;8.686;2022-12-17T00:32:36;100913.94;;;-4.86;93.51
60099;BME280;62818;49.394;8.686;2022-12-17T00:33:55;100907.47;;;-4.37;94.52
60099;BME280;62818;49.394;8.686;2022-12-17T00:35:14;100914.03;;;-4.69;92.59
60099;BME280;62818;49.394;8.686;2022-12-17T00:36:33;100913.28;;;-4.91;93.06
60099;BME280;62818;49.394;8.686;2022-12-17T00:37:52;100925.44;;;-4.93;93.33
60099;BME280;62818;49.394;8.686;2022-12-17T00:39:12;100930.00;;;-5.19;94.31
60099;BME280;62818;49.394;8.686;2022-12-17T00:40:31;100924.00;;;-4.60;95.27
60099;BME280;62818;49.394;8.686;2022-12-17T00:42:10;100926.56;;;-4.60;94.36
60099;BME280;62818;49.394;8.686;2022-12-17T00:43:29;100930.22;;;-5.04;93.73
60099;BME280;62818;49.394;8.686;2022-12-17T00:44:48;100935.34;;;-5.02;94.40
60099;BME280;62818;49.394;8.686;2022-12-17T00:46:10;100925.69;;;-4.59;94.96
60099;BME280;62818;49.394;8.686;2022-12-17T00:47:29;100938.50;;;-4.96;94.18
60099;BME280;62818;49.394;8.686;2022-12-17T00:48:49;100932.72;;;-5.22;95.91
60099;BME280;62818;49.394;8.686;2022-12-17T00:50:10;100934.78;;;-4.50;95.66
60099;BME280;62818;49.394;8.686;2022-12-17T00:51:29;100937.72;;;-4.98;95.10
60099;BME280;62818;49.394;8.686;2022-12-17T00:52:51;100933.53;;;-5.22;96.03
60099;BME280;62818;49.394;8.686;2022-12-17T00:54:11;100939.59;;;-5.01;96.96
60099;BME280;62818;49.394;8.686;2022-12-17T00:55:32;100934.06;;;-4.54;97.24
60099;BME280;62818;49.394;8.686;2022-12-17T00:56:52;100933.97;;;-4.91;95.35
60099;BME280;62818;49.394;8.686;2022-12-17T00:58:11;100936.34;;;-5.27;96.78
60099;BME280;62818;49.394;8.686;2022-12-17T00:59:30;100935.72;;;-5.33;97.69
60099;BME280;62818;49.394;8.686;2022-12-17T01:00:49;100936.53;;;-5.11;97.43
60099;BME280;62818;49.394;8.686;2022-12-17T01:02:08;100935.25;;;-5.21;97.50
60099;BME280;62818;49.394;8.686;2022-12-17T01:03:28;100945.72;;;-5.46;98.02
60099;BME280;62818;49.394;8.686;2022-12-17T01:04:51;100939.56;;;-5.21;98.06
60099;BME280;62818;49.394;8.686;2022-12-17T01:06:27;100944.09;;;-5.48;97.39
60099;BME280;62818;49.394;8.686;2022-12-17T01:07:48;100943.69;;;-5.59;97.37
60099;BME280;62818;49.394;8.686;2022-12-17T01:09:08;100942.47;;;-5.29;97.75
60099;BME280;62818;49.394;8.686;2022-12-17T01:10:27;100947.22;;;-5.40;96.82
60099;BME280;62818;49.394;8.686;2022-12-17T01:11:51;100950.19;;;-5.49;96.50
60099;BME280;62818;49.394;8.686;2022-12-17T01:13:14;100951.59;;;-5.20;96.84
60099;BME280;62818;49.394;8.686;2022-12-17T01:14:34;100957.16;;;-5.51;96.49
60099;BME280;62818;49.394;8.686;2022-12-17T01:15:53;100964.41;;;-5.39;97.34
60099;BME280;62818;49.394;8.686;2022-12-17T01:17:15;100961.22;;;-5.46;96.37
60099;BME280;62818;49.394;8.686;2022-12-17T01:18:34;100971.03;;;-5.12;96.34
60099;BME280;62818;49.394;8.686;2022-12-17T01:19:53;100974.66;;;-5.16;95.02
60099;BME280;62818;49.394;8.686;2022-12-17T01:21:12;100974.47;;;-5.33;94.40
60099;BME280;62818;49.394;8.686;2022-12-17T01:22:36;100977.44;;;-5.42;95.01
60099;BME280;62818;49.394;8.686;2022-12-17T01:23:55;100975.28;;;-5.31;95.42
60099;BME280;62818;49.394;8.686;2022-12-17T01:25:14;100972.44;;;-5.25;94.90
60099;BME280;62818;49.394;8.686;2022-12-17T01:26:33;100974.66;;;-5.16;95.05
60099;BME280;62818;49.394;8.686;2022-12-17T01:27:55;100978.50;;;-5.26;95.07
60099;BME280;62818;49.394;8.686;2022-12-17T01:29:21;100976.34;;;-5.58;95.55
60099;BME280;62818;49.394;8.686;2022-12-17T01:30:43;100971.69;;;-5.49;96.23
60099;BME280;62818;49.394;8.686;2022-12-17T01:32:04;100978.28;;;-5.42;96.28
60099;BME280;62818;49.394;8.686;2022-12-17T01:33:24;100977.97;;;-5.56;95.85
60099;BME280;62818;49.394;8.686;2022-12-17T01:34:43;100972.56;;;-5.71;96.46
60099;BME280;62818;49.394;8.686;2022-12-17T01:36:02;100973.69;;;-5.35;96.96
60099;BME280;62818;49.394;8.686;2022-12-17T01:37:23;100983.41;;;-5.40;95.88
60099;BME280;62818;49.394;8.686;2022-12-17T01:38:42;100983.56;;;-5.66;95.65
60099;BME280;62818;49.394;8.686;2022-12-17T01:40:04;100984.41;;;-5.44;95.25
60099;BME280;62818;49.394;8.686;2022-12-17T01:41:24;100989.59;;;-5.44;95.21
60099;BME280;62818;49.394;8.686;2022-12-17T01:42:45;100999.16;;;-5.69;94.90
60099;BME280;62818;49.394;8.686;2022-12-17T01:46:18;101005.63;;;-5.81;95.70
60099;BME280;62818;49.394;8.686;2022-12-17T01:47:46;100999.06;;;-5.23;96.45
60099;BME280;62818;49.394;8.686;2022-12-17T01:49:09;101002.06;;;-5.55;95.37
60099;BME280;62818;49.394;8.686;2022-12-17T01:50:34;101006.38;;;-5.77;96.12
60099;BME280;62818;49.394;8.686;2022-12-17T01:51:56;101007.44;;;-5.83;96.59
60099;BME280;62818;49.394;8.686;2022-12-17T01:53:21;101010.09;;;-5.41;96.64
60099;BME280;62818;49.394;8.686;2022-12-17T01:54:45;101005.53;;;-5.13;95.63
60099;BME280;62818;49.394;8.686;2022-12-17T01:56:08;101009.19;;;-4.97;94.80
60099;BME280;62818;49.394;8.686;2022-12-17T01:57:29;101004.34;;;-5.48;94.57
60099;BME280;62818;49.394;8.686;2022-12-17T01:58:48;101001.69;;;-5.68;95.89
60099;BME280;62818;49.394;8.686;2022-12-17T02:00:09;101009.84;;;-5.78;96.91
60099;BME280;62818;49.394;8.686;2022-12-17T02:01:31;101007.84;;;-5.27;96.74
60099;BME280;62818;49.394;8.686;2022-12-17T02:02:50;101008.78;;;-5.08;95.75
60099;BME280;62818;49.394;8.686;2022-12-17T02:04:10;101007.53;;;-5.41;95.05
60099;BME280;62818;49.394;8.686;2022-12-17T02:06:10;101009.84;;;-5.78;95.63
60099;BME280;62818;49.394;8.686;2022-12-17T02:08:07;101018.13;;;-5.70;96.40
60099;BME280;62818;49.394;8.686;2022-12-17T02:09:42;101016.78;;;-5.80;95.35
60099;BME280;62818;49.394;8.686;2022-12-17T02:12:46;101021.06;;;-5.79;96.04
60099;BME280;62818;49.394;8.686;2022-12-17T02:14:32;101019.28;;;-6.00;96.55
60099;BME280;62818;49.394;8.686;2022-12-17T02:16:21;101020.22;;;-6.01;97.67
60099;BME280;62818;49.394;8.686;2022-12-17T02:17:51;101016.47;;;-5.71;98.38
60099;BME280;62818;49.394;8.686;2022-12-17T02:21:18;101020.03;;;-5.97;96.99
60099;BME280;62818;49.394;8.686;2022-12-17T02:24:57;101021.34;;;-5.42;95.74
60099;BME280;62818;49.394;8.686;2022-12-17T02:27:55;101027.72;;;-5.95;95.08
60099;BME280;62818;49.394;8.686;2022-12-17T02:29:15;101027.50;;;-5.89;95.04
60099;BME280;62818;49.394;8.686;2022-12-17T02:30:37;101031.09;;;-5.93;95.83
60099;BME280;62818;49.394;8.686;2022-12-17T02:31:56;101033.06;;;-5.55;95.12
60099;BME280;62818;49.394;8.686;2022-12-17T02:33:18;101028.00;;;-5.58;94.70
60099;BME280;62818;49.394;8.686;2022-12-17T02:34:45;101032.75;;;-5.92;94.97
60099;BME280;62818;49.394;8.686;2022-12-17T02:36:10;101029.81;;;-5.17;95.14
60099;BME280;62818;49.394;8.686;2022-12-17T02:37:29;101031.94;;;-5.27;93.89
60099;BME280;62818;49.394;8.686;2022-12-17T02:38:48;101031.00;;;-5.90;94.13
60099;BME280;62818;49.394;8.686;2022-12-17T02:40:08;101028.59;;;-5.73;95.58
60099;BME280;62818;49.394;8.686;2022-12-17T02:41:31;101021.13;;;-5.59;95.01
60099;BME280;62818;49.394;8.686;2022-12-17T02:43:02;101032.78;;;-5.71;94.36
60099;BME280;62818;49.394;8.686;2022-12-17T02:44:23;101034.47;;;-5.48;94.79
60099;BME280;62818;49.394;8.686;2022-12-17T02:45:43;101041.44;;;-5.72;93.67
60099;BME280;62818;49.394;8.686;2022-12-17T02:47:10;101038.00;;;-5.72;93.34
60099;BME280;62818;49.394;8.686;2022-12-17T02:48:35;101038.22;;;-5.78;93.64
60099;BME280;62818;49.394;8.686;2022-12-17T02:49:59;101033.44;;;-5.43;93.38
60099;BME280;62818;49.394;8.686;2022-12-17T02:51:18;101037.75;;;-5.43;92.80
60099;BME280;62818;49.394;8.686;2022-12-17T02:52:42;101036.00;;;-5.87;93.31
60099;BME280;62818;49.394;8.686;2022-12-17T02:54:09;101033.91;;;-5.99;94.29
60099;BME280;62818;49.394;8.686;2022-12-17T02:55:28;101037.09;;;-5.71;94.84
60099;BME280;62818;49.394;8.686;2022-12-17T02:56:52;101039.44;;;-5.42;95.18
60099;BME280;62818;49.394;8.686;2022-12-17T02:58:11;101049.00;;;-5.67;94.06
60099;BME280;62818;49.394;8.686;2022-12-17T02:59:30;101049.16;;;-5.72;94.16
60099;BME280;62818;49.394;8.686;2022-12-17T03:00:52;101048.56;;;-5.55;94.18
60099;BME280;62818;49.394;8.686;2022-12-17T03:02:16;101047.13;;;-5.41;93.10
60099;BME280;62818;49.394;8.686;2022-12-17T03:03:35;101053.16;;;-5.42;92.63
60099;BME280;62818;49.394;8.686;2022-12-17T03:04:57;101057.44;;;-5.62;92.07
60099;BME280;62818;49.394;8.686;2022-12-17T03:06:18;101054.34;;;-5.72;92.79
60099;BME280;62818;49.394;8.686;2022-12-17T03:07:40;101053.38;;;-5.69;92.97
60099;BME280;62818;49.394;8.686;2022-12-17T03:08:59;101058.41;;;-5.43;92.87
60099;BME280;62818;49.394;8.686;2022-12-17T03:10:18;101062.16;;;-5.96;92.83
60099;BME280;62818;49.394;8.686;2022-12-17T03:11:38;101060.34;;;-5.94;93.85
60099;BME280;62818;49.394;8.686;2022-12-17T03:13:02;101061.81;;;-6.11;94.50
60099;BME280;62818;49.394;8.686;2022-12-17T03:14:21;101064.50;;;-6.14;94.90
60099;BME280;62818;49.394;8.686;2022-12-17T03:15:40;101063.00;;;-5.96;94.99
60099;BME280;62818;49.394;8.686;2022-12-17T03:17:00;101064.19;;;-6.05;94.52
60099;BME280;62818;49.394;8.686;2022-12-17T03:18:19;101067.53;;;-6.03;94.58
60099;BME280;62818;49.394;8.686;2022-12-17T03:19:41;101076.47;;;-5.88;94.80
60099;BME280;62818;49.394;8.686;2022-12-17T03:21:00;101075.84;;;-5.71;95.01
60099;BME280;62818;49.394;8.686;2022-12-17T03:22:19;101078.41;;;-5.94;94.49
60099;BME280;62818;49.394;8.686;2022-12-17T03:23:40;101082.66;;;-6.17;95.33
60099;BME280;62818;49.394;8.686;2022-12-17T03:25:01;101088.84;;;-5.74;96.38
60099;BME280;62818;49.394;8.686;2022-12-17T03:26:23;101092.94;;;-5.90;94.55
60099;BME280;62818;49.394;8.686;2022-12-17T03:27:53;101092.66;;;-6.08;95.49
60099;BME280;62818;49.394;8.686;2022-12-17T03:29:12;101093.97;;;-5.96;95.07
60099;BME280;62818;49.394;8.686;2022-12-17T03:30:31;101087.41;;;-6.05;94.23
60099;BME280;62818;49.394;8.686;2022-12-17T03:31:50;101085.75;;;-5.38;93.82
60099;BME280;62818;49.394;8.686;2022-12-17T03:33:12;101085.94;;;-5.20;91.54
60099;BME280;62818;49.394;8.686;2022-12-17T03:34:31;101095.53;;;-5.69;90.69
60099;BME280;62818;49.394;8.686;2022-12-17T03:35:52;101085.66;;;-6.04;91.98
60099;BME280;62818;49.394;8.686;2022-12-17T03:37:11;101083.59;;;-5.94;93.24
60099;BME280;62818;49.394;8.686;2022-12-17T03:38:31;101077.44;;;-5.90;92.40
60099;BME280;62818;49.394;8.686;2022-12-17T03:39:52;101074.59;;;-6.08;91.95
60099;BME280;62818;49.394;8.686;2022-12-17T03:41:13;101080.88;;;-6.15;92.63
60099;BME280;62818;49.394;8.686;2022-12-17T03:42:35;101084.59;;;-5.98;91.78
60099;BME280;62818;49.394;8.686;2022-12-17T03:43:54;101089.03;;;-6.27;92.04
60099;BME280;62818;49.394;8.686;2022-12-17T03:45:15;101092.03;;;-6.65;93.48
60099;BME280;62818;49.394;8.686;2022-12-17T03:46:37;101096.69;;;-6.76;93.88
60099;BME280;62818;49.394;8.686;2022-12-17T03:48:10;101094.31;;;-6.82;94.97
60099;BME280;62818;49.394;8.686;2022-12-17T03:49:31;101095.63;;;-6.69;95.83
60099;BME280;62818;49.394;8.686;2022-12-17T03:50:51;101099.25;;;-6.74;95.76
60099;BME280;62818;49.394;8.686;2022-12-17T03:52:11;101093.69;;;-6.89;95.83
60099;BME280;62818;49.394;8.686;2022-12-17T03:53:33;101093.63;;;-6.87;97.01
60099;BME280;62818;49.394;8.686;2022-12-17T03:54:54;101098.84;;;-6.89;98.02
60099;BME280;62818;49.394;8.686;2022-12-17T03:56:16;101097.97;;;-6.89;99.28
60099;BME280;62818;49.394;8.686;2022-12-17T03:57:37;101095.97;;;-6.80;100.00
60099;BME280;62818;49.394;8.686;2022-12-17T03:58:56;101097.22;;;-6.40;100.00
60099;BME280;62818;49.394;8.686;2022-12-17T04:00:15;101093.31;;;-6.52;99.83
60099;BME280;62818;49.394;8.686;2022-12-17T04:01:35;101095.47;;;-6.64;100.00
60099;BME280;62818;49.394;8.686;2022-12-17T04:02:54;101104.25;;;-6.70;100.00
60099;BME280;62818;49.394;8.686;2022-12-17T04:04:13;101099.97;;;-6.71;100.00
60099;BME280;62818;49.394;8.686;2022-12-17T04:05:32;101097.47;;;-6.72;100.00
60099;BME280;62818;49.394;8.686;2022-12-17T04:06:53;101100.56;;;-6.63;100.00
60099;BME280;62818;49.394;8.686;2022-12-17T04:08:12;101093.00;;;-6.67;100.00
60099;BME280;62818;49.394;8.686;2022-12-17T04:09:31;101107.41;;;-6.36;99.51
60099;BME280;62818;49.394;8.686;2022-12-17T04:10:53;101098.97;;;-6.65;99.29
60099;BME280;62818;49.394;8.686;2022-12-17T04:12:12;101106.47;;;-6.33;99.69
60099;BME280;62818;49.394;8.686;2022-12-17T04:13:31;101101.16;;;-6.04;98.07
60099;BME280;62818;49.394;8.686;2022-12-17T04:14:52;101108.28;;;-6.61;96.93
60099;BME280;62818;49.394;8.686;2022-12-17T04:16:11;101109.78;;;-6.56;97.38
60099;BME280;62818;49.394;8.686;2022-12-17T04:17:33;101110.03;;;-6.37;97.74
60099;BME280;62818;49.394;8.686;2022-12-17T04:18:52;101112.94;;;-5.97;97.47
60099;BME280;62818;49.394;8.686;2022-12-17T04:20:11;101111.69;;;-6.35;96.59
60099;BME280;62818;49.394;8.686;2022-12-17T04:21:33;101115.56;;;-6.48;97.80
60099;BME280;62818;49.394;8.686;2022-12-17T04:22:52;101114.72;;;-6.48;99.50
60099;BME280;62818;49.394;8.686;2022-12-17T04:24:11;101116.34;;;-6.72;100.00
60099;BME280;62818;49.394;8.686;2022-12-17T04:25:44;101123.59;;;-6.83;100.00
60099;BME280;62818;49.394;8.686;2022-12-17T04:27:03;101122.03;;;-6.89;100.00
60099;BME280;62818;49.394;8.686;2022-12-17T04:28:22;101121.94;;;-6.86;100.00
60099;BME280;62818;49.394;8.686;2022-12-17T04:29:44;101114.44;;;-6.41;100.00
60099;BME280;62818;49.394;8.686;2022-12-17T04:31:05;101120.56;;;-6.19;100.00
60099;BME280;62818;49.394;8.686;2022-12-17T04:32:24;101112.41;;;-6.07;100.00
60099;BME280;62818;49.394;8.686;2022-12-17T04:33:46;101117.66;;;-5.85;100.00
60099;BME280;62818;49.394;8.686;2022-12-17T04:35:05;101120.44;;;-5.68;100.00
60099;BME280;62818;49.394;8.686;2022-12-17T04:36:24;101117.03;;;-5.45;99.45
60099;BME280;62818;49.394;8.686;2022-12-17T04:37:45;101119.06;;;-5.53;98.56
60099;BME280;62818;49.394;8.686;2022-12-17T04:39:05;101129.91;;;-5.68;98.90
60099;BME280;62818;49.394;8.686;2022-12-17T04:40:26;101143.47;;;-6.10;99.18
60099;BME280;62818;49.394;8.686;2022-12-17T04:41:45;101137.66;;;-6.41;100.00
60099;BME280;62818;49.394;8.686;2022-12-17T04:43:06;101135.56;;;-6.30;100.00
60099;BME280;62818;49.394;8.686;2022-12-17T04:44:29;101137.34;;;-6.58;100.00
60099;BME280;62818;49.394;8.686;2022-12-17T04:45:50;101142.81;;;-6.15;100.00
60099;BME280;62818;49.394;8.686;2022-12-17T04:47:10;101145.84;;;-6.28;99.04
60099;BME280;62818;49.394;8.686;2022-12-17T04:48:31;101140.22;;;-6.67;98.60
60099;BME280;62818;49.394;8.686;2022-12-17T04:49:50;101145.16;;;-6.87;98.65
60099;BME280;62818;49.394;8.686;2022-12-17T04:51:11;101146.97;;;-6.63;99.38
60099;BME280;62818;49.394;8.686;2022-12-17T04:52:31;101153.00;;;-6.12;98.55
60099;BME280;62818;49.394;8.686;2022-12-17T04:53:50;101149.09;;;-6.75;97.55
60099;BME280;62818;49.394;8.686;2022-12-17T04:55:09;101139.41;;;-6.95;98.38
60099;BME280;62818;49.394;8.686;2022-12-17T04:56:30;101142.69;;;-6.90;99.59
60099;BME280;62818;49.394;8.686;2022-12-17T04:57:49;101149.53;;;-6.89;99.58
60099;BME280;62818;49.394;8.686;2022-12-17T04:59:11;101146.69;;;-7.09;100.00
60099;BME280;62818;49.394;8.686;2022-12-17T05:00:32;101147.66;;;-6.84;100.00
60099;BME280;62818;49.394;8.686;2022-12-17T05:01:51;101141.75;;;-6.88;100.00
60099;BME280;62818;49.394;8.686;2022-12-17T05:03:16;101145.63;;;-7.02;100.00
60099;BME280;62818;49.394;8.686;2022-12-17T05:04:38;101154.16;;;-6.72;100.00
60099;BME280;62818;49.394;8.686;2022-12-17T05:05:57;101151.63;;;-6.74;99.82
60099;BME280;62818;49.394;8.686;2022-12-17T05:07:19;101152.88;;;-6.87;99.23
60099;BME280;62818;49.394;8.686;2022-12-17T05:08:41;101150.00;;;-7.04;99.66
60099;BME280;62818;49.394;8.686;2022-12-17T05:10:03;101148.66;;;-6.88;99.70
60099;BME280;62818;49.394;8.686;2022-12-17T05:11:23;101153.53;;;-6.53;99.53
60099;BME280;62818;49.394;8.686;2022-12-17T05:12:42;101153.91;;;-6.65;98.69
60099;BME280;62818;49.394;8.686;2022-12-17T05:14:06;101151.34;;;-6.65;98.02
60099;BME280;62818;49.394;8.686;2022-12-17T05:15:25;101163.53;;;-6.70;98.02
60099;BME280;62818;49.394;8.686;2022-12-17T05:16:44;101159.31;;;-7.00;99.38
60099;BME280;62818;49.394;8.686;2022-12-17T05:18:07;101164.09;;;-6.88;100.00
60099;BME280;62818;49.394;8.686;2022-12-17T05:19:26;101168.00;;;-6.75;100.00
60099;BME280;62818;49.394;8.686;2022-12-17T05:20:45;101168.50;;;-6.64;100.00
60099;BME280;62818;49.394;8.686;2022-12-17T05:22:07;101167.88;;;-6.44;100.00
60099;BME280;62818;49.394;8.686;2022-12-17T05:23:28;101177.44;;;-6.22;98.92
60099;BME280;62818;49.394;8.686;2022-12-17T05:24:47;101173.47;;;-5.82;97.89
60099;BME280;62818;49.394;8.686;2022-12-17T05:26:16;101170.22;;;-6.37;97.29
60099;BME280;62818;49.394;8.686;2022-12-17T05:27:40;101170.13;;;-6.89;98.02
60099;BME280;62818;49.394;8.686;2022-12-17T05:29:03;101162.47;;;-6.91;99.10
60099;BME280;62818;49.394;8.686;2022-12-17T05:30:25;101167.84;;;-6.70;99.31
60099;BME280;62818;49.394;8.686;2022-12-17T05:31:44;101177.25;;;-6.42;98.66
60099;BME280;62818;49.394;8.686;2022-12-17T05:33:03;101169.97;;;-6.83;99.48
60099;BME280;62818;49.394;8.686;2022-12-17T05:34:22;101179.16;;;-6.22;98.96
60099;BME280;62818;49.394;8.686;2022-12-17T05:35:43;101173.91;;;-6.99;98.98
60099;BME280;62818;49.394;8.686;2022-12-17T05:37:02;101179.56;;;-6.34;100.00
60099;BME280;62818;49.394;8.686;2022-12-17T05:38:21;101178.44;;;-6.26;99.35
60099;BME280;62818;49.394;8.686;2022-12-17T05:39:42;101182.09;;;-6.33;99.83
60099;BME280;62818;49.394;8.686;2022-12-17T05:41:05;101189.47;;;-5.96;98.35
60099;BME280;62818;49.394;8.686;2022-12-17T05:42:24;101181.72;;;-6.74;97.68
60099;BME280;62818;49.394;8.686;2022-12-17T05:43:45;101185.09;;;-7.29;100.00
60099;BME280;62818;49.394;8.686;2022-12-17T05:45:04;101180.03;;;-7.32;100.00
60099;BME280;62818;49.394;8.686;2022-12-17T05:46:26;101183.81;;;-6.59;100.00
60099;BME280;62818;49.394;8.686;2022-12-17T05:47:48;101188.66;;;-6.76;100.00
60099;BME280;62818;49.394;8.686;2022-12-17T05:49:07;101189.88;;;-7.17;100.00
60099;BME280;62818;49.394;8.686;2022-12-17T05:50:26;101192.69;;;-7.25;100.00
60099;BME280;62818;49.394;8.686;2022-12-17T05:51:46;101186.75;;;-6.70;100.00
60099;BME280;62818;49.394;8.686;2022-12-17T05:53:07;101197.13;;;-6.73;100.00
60099;BME280;62818;49.394;8.686;2022-12-17T05:54:27;101192.38;;;-6.85;100.00
60099;BME280;62818;49.394;8.686;2022-12-17T05:55:52;101195.03;;;-7.17;100.00
60099;BME280;62818;49.394;8.686;2022-12-17T05:57:12;101198.06;;;-6.75;100.00
60099;BME280;62818;49.394;8.686;2022-12-17T05:58:44;101190.63;;;-6.57;100.00
60099;BME280;62818;49.394;8.686;2022-12-17T06:00:04;101200.19;;;-6.88;100.00
60099;BME280;62818;49.394;8.686;2022-12-17T06:01:26;101205.41;;;-6.36;100.00
60099;BME280;62818;49.394;8.686;2022-12-17T06:02:47;101204.53;;;-7.19;100.00
60099;BME280;62818;49.394;8.686;2022-12-17T06:04:14;101207.81;;;-7.43;100.00
60099;BME280;62818;49.394;8.686;2022-12-17T06:05:52;101213.88;;;-7.15;100.00
60099;BME280;62818;49.394;8.686;2022-12-17T06:07:14;101218.31;;;-6.91;100.00
60099;BME280;62818;49.394;8.686;2022-12-17T06:08:34;101218.22;;;-6.60;100.00
60099;BME280;62818;49.394;8.686;2022-12-17T06:09:53;101220.97;;;-7.23;100.00
60099;BME280;62818;49.394;8.686;2022-12-17T06:11:14;101223.88;;;-6.49;100.00
60099;BME280;62818;49.394;8.686;2022-12-17T06:12:34;101221.00;;;-6.96;100.00
60099;BME280;62818;49.394;8.686;2022-12-17T06:13:53;101230.84;;;-7.39;100.00
60099;BME280;62818;49.394;8.686;2022-12-17T06:15:14;101226.66;;;-7.12;100.00
60099;BME280;62818;49.394;8.686;2022-12-17T06:16:36;101235.72;;;-6.99;100.00
60099;BME280;62818;49.394;8.686;2022-12-17T06:17:56;101231.69;;;-7.08;100.00
60099;BME280;62818;49.394;8.686;2022-12-17T06:19:15;101235.00;;;-7.04;100.00
60099;BME280;62818;49.394;8.686;2022-12-17T06:20:37;101234.16;;;-6.75;100.00
60099;BME280;62818;49.394;8.686;2022-12-17T06:21:56;101242.41;;;-6.92;100.00
60099;BME280;62818;49.394;8.686;2022-12-17T06:23:17;101236.50;;;-6.68;100.00
60099;BME280;62818;49.394;8.686;2022-12-17T06:24:36;101245.91;;;-6.67;100.00
60099;BME280;62818;49.394;8.686;2022-12-17T06:25:56;101245.22;;;-7.01;100.00
60099;BME280;62818;49.394;8.686;2022-12-17T06:27:18;101250.25;;;-6.40;100.00
60099;BME280;62818;49.394;8.686;2022-12-17T06:28:41;101255.25;;;-7.21;100.00
60099;BME280;62818;49.394;8.686;2022-12-17T06:30:01;101255.19;;;-7.18;100.00
60099;BME280;62818;49.394;8.686;2022-12-17T06:31:20;101253.13;;;-6.78;100.00
60099;BME280;62818;49.394;8.686;2022-12-17T06:32:39;101254.75;;;-7.03;100.00
60099;BME280;62818;49.394;8.686;2022-12-17T06:33:58;101263.16;;;-7.27;100.00
60099;BME280;62818;49.394;8.686;2022-12-17T06:35:36;101261.41;;;-7.27;100.00
60099;BME280;62818;49.394;8.686;2022-12-17T06:36:55;101256.09;;;-6.92;100.00
60099;BME280;62818;49.394;8.686;2022-12-17T06:38:16;101254.19;;;-7.14;100.00
60099;BME280;62818;49.394;8.686;2022-12-17T06:39:36;101261.56;;;-7.02;100.00
60099;BME280;62818;49.394;8.686;2022-12-17T06:41:01;101260.69;;;-7.32;100.00
60099;BME280;62818;49.394;8.686;2022-12-17T06:42:20;101256.78;;;-7.14;100.00
60099;BME280;62818;49.394;8.686;2022-12-17T06:43:39;101260.59;;;-7.27;100.00
60099;BME280;62818;49.394;8.686;2022-12-17T06:44:58;101270.81;;;-6.95;100.00
60099;BME280;62818;49.394;8.686;2022-12-17T06:46:17;101269.00;;;-7.22;100.00
60099;BME280;62818;49.394;8.686;2022-12-17T06:47:36;101267.13;;;-6.87;100.00
60099;BME280;62818;49.394;8.686;2022-12-17T06:49:12;101271.44;;;-7.16;100.00
60099;BME280;62818;49.394;8.686;2022-12-17T06:50:31;101267.06;;;-7.14;100.00
60099;BME280;62818;49.394;8.686;2022-12-17T06:51:52;101270.28;;;-7.06;100.00
60099;BME280;62818;49.394;8.686;2022-12-17T06:53:14;101268.41;;;-7.01;100.00
60099;BME280;62818;49.394;8.686;2022-12-17T06:54:33;101270.19;;;-7.03;100.00
60099;BME280;62818;49.394;8.686;2022-12-17T06:55:52;101268.53;;;-6.21;100.00
60099;BME280;62818;49.394;8.686;2022-12-17T06:57:17;101273.38;;;-6.37;100.00
60099;BME280;62818;49.394;8.686;2022-12-17T06:58:36;101282.66;;;-6.59;100.00
60099;BME280;62818;49.394;8.686;2022-12-17T07:00:00;101278.75;;;-6.44;100.00
60099;BME280;62818;49.394;8.686;2022-12-17T07:01:19;101283.72;;;-6.11;100.00
60099;BME280;62818;49.394;8.686;2022-12-17T07:02:39;101287.09;;;-6.10;100.00
60099;BME280;62818;49.394;8.686;2022-12-17T07:03:58;101287.59;;;-6.25;100.00
60099;BME280;62818;49.394;8.686;2022-12-17T07:05:17;101289.81;;;-6.41;100.00
60099;BME280;62818;49.394;8.686;2022-12-17T07:06:38;101298.53;;;-6.74;100.00
60099;BME280;62818;49.394;8.686;2022-12-17T07:07:57;101288.38;;;-6.78;100.00
60099;BME280;62818;49.394;8.686;2022-12-17T07:09:19;101298.31;;;-6.96;100.00
60099;BME280;62818;49.394;8.686;2022-12-17T07:10:38;101295.53;;;-6.88;100.00
60099;BME280;62818;49.394;8.686;2022-12-17T07:11:57;101305.94;;;-6.07;100.00
60099;BME280;62818;49.394;8.686;2022-12-17T07:13:21;101299.75;;;-5.76;98.49
60099;BME280;62818;49.394;8.686;2022-12-17T07:14:40;101307.41;;;-6.26;95.50